Inicio METAR Ruta Wind Satelite

Informe Meteorológico

Fecha: 2020/07/02 02:05:46 Local
2020.07.02 07:05 UTC


Estado: VENCIDO
Operación:VFR
Pereira / Matecana, Colombia (SKPE) 04-49N 075-44W 1342M
2020.07.01 2300 UTC
Wind: from the N (360 degrees) at 8 MPH (7 KT):0
Visibility: greater than 7 mile(s):0
Sky conditions: partly cloudy
Weather: Towering cumulus clouds observed
Temperature: 71 F (22 C)
Dew Point: 69 F (21 C)
Relative Humidity: 94%
Pressure (altimeter): 29.99 in. Hg (1015 hPa)
ob: SKPE 012300Z 36007KT 9999 SCT014TCU SCT080 22/21 A2999 RMK TCU/SE/S/SW
cycle: 23

SKPE 011900Z 04004KT 9999 VCSH SCT014TCU SCT080 23/21 A3000 RMK TCU VCSH N/NE/SE
SKPE 011800Z 22006KT 9999 VCSH FEW014TCU BKN080 24/20 A3003 RMK TCU VCSH/NE/E
SKPE 011700Z 23008KT 9999 FEW014 SCT080 24/21 A3005
SKPE 011600Z 26006KT 9999 SCT014 SCT080 25/21 A3007
SKPE 011500Z 27004KT 9999 FEW014 SCT080 24/21 A3008

2020/07/02 06:42
TAF TAF SKPE 020430Z 0206/0306 VRB02KT 9999 SCT015 SCT080
TEMPO 0208/0212 6000 DZ SCT010 BKN070 PROB40
TEMPO 0210/0212 2000 RA BCFG BKN008
BECMG 0214/0216 012012KT
TEMPO 0219/02223 DZ SCT015TCU TX28/0219Z TN19/0210Z